sensor_id;sensor_type;location;lat;lon;timestamp;temperature;humidity
12370;DHT22;6249;52.128;9.986;2022-09-03T00:02:20;14.80;99.30
12370;DHT22;6249;52.128;9.986;2022-09-03T00:09:53;14.60;99.90
12370;DHT22;6249;52.128;9.986;2022-09-03T00:13:22;14.70;99.90
12370;DHT22;6249;52.128;9.986;2022-09-03T00:16:55;14.70;99.90
12370;DHT22;6249;52.128;9.986;2022-09-03T00:24:06;14.70;99.90
12370;DHT22;6249;52.128;9.986;2022-09-03T00:27:32;14.70;99.90
12370;DHT22;6249;52.128;9.986;2022-09-03T00:31:06;14.70;99.90
12370;DHT22;6249;52.128;9.986;2022-09-03T00:34:39;14.70;99.90
12370;DHT22;6249;52.128;9.986;2022-09-03T00:38:01;14.80;99.90
12370;DHT22;6249;52.128;9.986;2022-09-03T00:41:29;14.90;99.90
12370;DHT22;6249;52.128;9.986;2022-09-03T00:48:23;15.00;99.90
12370;DHT22;6249;52.128;9.986;2022-09-03T00:59:16;15.10;99.90
12370;DHT22;6249;52.128;9.986;2022-09-03T01:10:29;15.20;99.90
12370;DHT22;6249;52.128;9.986;2022-09-03T01:18:22;15.00;99.90
12370;DHT22;6249;52.128;9.986;2022-09-03T01:22:08;15.00;99.90
12370;DHT22;6249;52.128;9.986;2022-09-03T01:26:27;14.90;99.90
12370;DHT22;6249;52.128;9.986;2022-09-03T01:30:03;14.90;99.90
12370;DHT22;6249;52.128;9.986;2022-09-03T01:51:36;14.90;99.90
12370;DHT22;6249;52.128;9.986;2022-09-03T01:58:53;14.80;99.90
12370;DHT22;6249;52.128;9.986;2022-09-03T02:02:24;14.70;99.90
12370;DHT22;6249;52.128;9.986;2022-09-03T02:05:45;14.70;99.90
12370;DHT22;6249;52.128;9.986;2022-09-03T02:09:07;14.70;99.90
12370;DHT22;6249;52.128;9.986;2022-09-03T02:12:32;14.70;99.90
12370;DHT22;6249;52.128;9.986;2022-09-03T02:16:00;14.60;99.90
12370;DHT22;6249;52.128;9.986;2022-09-03T02:19:26;14.60;99.90
12370;DHT22;6249;52.128;9.986;2022-09-03T02:22:51;14.60;99.90
12370;DHT22;6249;52.128;9.986;2022-09-03T02:26:17;14.60;99.90
12370;DHT22;6249;52.128;9.986;2022-09-03T02:29:39;14.50;99.90
12370;DHT22;6249;52.128;9.986;2022-09-03T02:33:00;14.40;99.90
12370;DHT22;6249;52.128;9.986;2022-09-03T02:36:29;14.40;99.90
12370;DHT22;6249;52.128;9.986;2022-09-03T02:39:51;14.50;99.90
12370;DHT22;6249;52.128;9.986;2022-09-03T02:43:43;14.40;99.90
12370;DHT22;6249;52.128;9.986;2022-09-03T02:47:07;14.30;99.90
12370;DHT22;6249;52.128;9.986;2022-09-03T02:50:28;14.40;99.90
12370;DHT22;6249;52.128;9.986;2022-09-03T02:53:49;14.40;99.90
12370;DHT22;6249;52.128;9.986;2022-09-03T02:57:12;14.30;99.90
12370;DHT22;6249;52.128;9.986;2022-09-03T03:00:34;14.20;99.90
12370;DHT22;6249;52.128;9.986;2022-09-03T03:03:58;14.20;99.90
12370;DHT22;6249;52.128;9.986;2022-09-03T03:07:19;14.10;99.90
12370;DHT22;6249;52.128;9.986;2022-09-03T03:10:42;14.10;99.90
12370;DHT22;6249;52.128;9.986;2022-09-03T03:14:04;14.10;99.90
12370;DHT22;6249;52.128;9.986;2022-09-03T03:17:27;14.00;99.90
12370;DHT22;6249;52.128;9.986;2022-09-03T03:20:48;14.00;99.90
12370;DHT22;6249;52.128;9.986;2022-09-03T03:24:11;14.00;99.90
12370;DHT22;6249;52.128;9.986;2022-09-03T03:27:31;14.10;99.90
12370;DHT22;6249;52.128;9.986;2022-09-03T03:30:55;14.00;99.90
12370;DHT22;6249;52.128;9.986;2022-09-03T03:34:16;13.90;99.90
12370;DHT22;6249;52.128;9.986;2022-09-03T03:37:39;13.80;99.90
12370;DHT22;6249;52.128;9.986;2022-09-03T03:41:24;13.70;99.90
12370;DHT22;6249;52.128;9.986;2022-09-03T03:44:50;13.60;99.90
12370;DHT22;6249;52.128;9.986;2022-09-03T03:48:11;13.50;99.90
12370;DHT22;6249;52.128;9.986;2022-09-03T03:51:32;13.40;99.90
12370;DHT22;6249;52.128;9.986;2022-09-03T03:54:53;13.30;99.90
12370;DHT22;6249;52.128;9.986;2022-09-03T03:58:16;13.20;99.90
12370;DHT22;6249;52.128;9.986;2022-09-03T04:01:37;13.20;99.90
12370;DHT22;6249;52.128;9.986;2022-09-03T04:05:00;13.10;99.90
12370;DHT22;6249;52.128;9.986;2022-09-03T04:08:23;13.10;99.90
12370;DHT22;6249;52.128;9.986;2022-09-03T04:11:44;13.00;99.90
12370;DHT22;6249;52.128;9.986;2022-09-03T04:15:05;12.90;99.90
12370;DHT22;6249;52.128;9.986;2022-09-03T04:18:26;12.90;99.90
12370;DHT22;6249;52.128;9.986;2022-09-03T04:21:46;12.80;99.90
12370;DHT22;6249;52.128;9.986;2022-09-03T04:25:07;12.90;99.90
12370;DHT22;6249;52.128;9.986;2022-09-03T04:28:28;12.80;99.90
12370;DHT22;6249;52.128;9.986;2022-09-03T04:31:49;12.80;99.90
12370;DHT22;6249;52.128;9.986;2022-09-03T04:35:28;12.70;99.90
12370;DHT22;6249;52.128;9.986;2022-09-03T04:38:54;12.80;99.90
12370;DHT22;6249;52.128;9.986;2022-09-03T04:42:17;12.70;99.90
12370;DHT22;6249;52.128;9.986;2022-09-03T04:45:40;12.60;99.90
12370;DHT22;6249;52.128;9.986;2022-09-03T04:49:03;12.60;99.90
12370;DHT22;6249;52.128;9.986;2022-09-03T04:52:27;12.60;99.90
12370;DHT22;6249;52.128;9.986;2022-09-03T04:55:49;12.60;99.90
12370;DHT22;6249;52.128;9.986;2022-09-03T04:59:10;12.60;99.90
12370;DHT22;6249;52.128;9.986;2022-09-03T05:02:30;12.50;99.90
12370;DHT22;6249;52.128;9.986;2022-09-03T05:05:55;12.50;99.90
12370;DHT22;6249;52.128;9.986;2022-09-03T05:09:16;12.50;99.90
12370;DHT22;6249;52.128;9.986;2022-09-03T05:12:39;12.50;99.90
12370;DHT22;6249;52.128;9.986;2022-09-03T05:16:05;12.50;99.90
12370;DHT22;6249;52.128;9.986;2022-09-03T05:19:28;12.60;99.90
12370;DHT22;6249;52.128;9.986;2022-09-03T05:22:51;12.90;99.90
12370;DHT22;6249;52.128;9.986;2022-09-03T05:26:14;13.10;99.90
12370;DHT22;6249;52.128;9.986;2022-09-03T05:29:35;13.10;99.90
12370;DHT22;6249;52.128;9.986;2022-09-03T05:32:58;13.10;99.90
12370;DHT22;6249;52.128;9.986;2022-09-03T05:36:23;13.10;99.90
12370;DHT22;6249;52.128;9.986;2022-09-03T05:39:47;13.00;99.90
12370;DHT22;6249;52.128;9.986;2022-09-03T05:43:10;13.00;99.90
12370;DHT22;6249;52.128;9.986;2022-09-03T05:46:36;13.10;99.90
12370;DHT22;6249;52.128;9.986;2022-09-03T05:49:57;13.10;99.90
12370;DHT22;6249;52.128;9.986;2022-09-03T05:53:22;13.20;99.90
12370;DHT22;6249;52.128;9.986;2022-09-03T05:56:43;13.30;99.90
12370;DHT22;6249;52.128;9.986;2022-09-03T06:00:04;13.40;99.90
12370;DHT22;6249;52.128;9.986;2022-09-03T06:03:25;13.60;99.90
12370;DHT22;6249;52.128;9.986;2022-09-03T06:06:48;13.70;99.90
12370;DHT22;6249;52.128;9.986;2022-09-03T06:10:09;13.70;99.90
12370;DHT22;6249;52.128;9.986;2022-09-03T06:13:35;14.00;99.90
12370;DHT22;6249;52.128;9.986;2022-09-03T06:16:55;14.00;99.90
12370;DHT22;6249;52.128;9.986;2022-09-03T06:20:18;14.20;99.90
12370;DHT22;6249;52.128;9.986;2022-09-03T06:23:48;14.30;99.90
12370;DHT22;6249;52.128;9.986;2022-09-03T06:27:10;14.30;99.90
12370;DHT22;6249;52.128;9.986;2022-09-03T06:30:31;14.40;99.90
12370;DHT22;6249;52.128;9.986;2022-09-03T06:33:52;14.60;99.90
12370;DHT22;6249;52.128;9.986;2022-09-03T06:37:16;14.80;99.90
12370;DHT22;6249;52.128;9.986;2022-09-03T06:40:37;14.80;99.90
12370;DHT22;6249;52.128;9.986;2022-09-03T06:44:01;14.90;99.90
12370;DHT22;6249;52.128;9.986;2022-09-03T06:47:25;15.00;99.90
12370;DHT22;6249;52.128;9.986;2022-09-03T06:54:15;15.20;99.90
12370;DHT22;6249;52.128;9.986;2022-09-03T06:57:36;15.30;99.90
12370;DHT22;6249;52.128;9.986;2022-09-03T07:01:08;15.50;99.90
12370;DHT22;6249;52.128;9.986;2022-09-03T07:04:29;15.70;99.90
12370;DHT22;6249;52.128;9.986;2022-09-03T07:07:54;15.80;99.90
12370;DHT22;6249;52.128;9.986;2022-09-03T07:11:17;16.10;99.90
12370;DHT22;6249;52.128;9.986;2022-09-03T07:14:38;16.30;99.90
12370;DHT22;6249;52.128;9.986;2022-09-03T07:17:59;16.40;99.90
12370;DHT22;6249;52.128;9.986;2022-09-03T07:21:24;16.50;99.90
12370;DHT22;6249;52.128;9.986;2022-09-03T07:24:45;16.50;99.90
12370;DHT22;6249;52.128;9.986;2022-09-03T07:28:06;16.70;99.90
12370;DHT22;6249;52.128;9.986;2022-09-03T07:31:35;16.70;99.90
12370;DHT22;6249;52.128;9.986;2022-09-03T07:34:59;16.70;99.90
12370;DHT22;6249;52.128;9.986;2022-09-03T07:38:19;16.80;99.90
12370;DHT22;6249;52.128;9.986;2022-09-03T07:41:44;16.80;99.90
12370;DHT22;6249;52.128;9.986;2022-09-03T07:45:08;17.00;99.90
12370;DHT22;6249;52.128;9.986;2022-09-03T07:48:34;17.00;99.90
12370;DHT22;6249;52.128;9.986;2022-09-03T07:51:54;17.10;99.90
12370;DHT22;6249;52.128;9.986;2022-09-03T07:55:15;17.30;99.90
12370;DHT22;6249;52.128;9.986;2022-09-03T07:58:37;17.60;99.90
12370;DHT22;6249;52.128;9.986;2022-09-03T08:02:01;17.90;99.70
12370;DHT22;6249;52.128;9.986;2022-09-03T08:05:21;18.10;99.90
12370;DHT22;6249;52.128;9.986;2022-09-03T08:08:42;18.40;99.40
12370;DHT22;6249;52.128;9.986;2022-09-03T08:12:07;18.80;97.80
12370;DHT22;6249;52.128;9.986;2022-09-03T08:15:27;18.90;97.60
12370;DHT22;6249;52.128;9.986;2022-09-03T08:18:50;19.10;97.10
12370;DHT22;6249;52.128;9.986;2022-09-03T08:22:11;19.30;96.60
12370;DHT22;6249;52.128;9.986;2022-09-03T08:25:31;19.60;95.70
12370;DHT22;6249;52.128;9.986;2022-09-03T08:28:54;19.40;95.70
12370;DHT22;6249;52.128;9.986;2022-09-03T08:32:15;19.50;96.30
12370;DHT22;6249;52.128;9.986;2022-09-03T08:35:35;19.80;96.00
12370;DHT22;6249;52.128;9.986;2022-09-03T08:38:58;19.90;95.60
12370;DHT22;6249;52.128;9.986;2022-09-03T08:46:16;20.40;94.70
12370;DHT22;6249;52.128;9.986;2022-09-03T08:53:46;21.20;93.50
12370;DHT22;6249;52.128;9.986;2022-09-03T08:57:08;21.70;92.60
12370;DHT22;6249;52.128;9.986;2022-09-03T09:00:53;21.90;92.30
12370;DHT22;6249;52.128;9.986;2022-09-03T09:23:12;23.50;82.70
12370;DHT22;6249;52.128;9.986;2022-09-03T09:26:33;23.40;83.00
12370;DHT22;6249;52.128;9.986;2022-09-03T09:29:54;23.40;81.60
12370;DHT22;6249;52.128;9.986;2022-09-03T09:33:21;23.50;81.00
12370;DHT22;6249;52.128;9.986;2022-09-03T09:36:44;23.50;80.20
12370;DHT22;6249;52.128;9.986;2022-09-03T09:40:06;23.80;78.60
12370;DHT22;6249;52.128;9.986;2022-09-03T09:43:29;24.20;76.90
12370;DHT22;6249;52.128;9.986;2022-09-03T09:46:50;24.40;75.30
12370;DHT22;6249;52.128;9.986;2022-09-03T09:50:22;24.50;74.60
12370;DHT22;6249;52.128;9.986;2022-09-03T09:53:43;24.70;73.80
12370;DHT22;6249;52.128;9.986;2022-09-03T09:57:06;25.10;73.40
12370;DHT22;6249;52.128;9.986;2022-09-03T10:00:32;25.60;71.00
12370;DHT22;6249;52.128;9.986;2022-09-03T10:04:07;26.20;68.80
12370;DHT22;6249;52.128;9.986;2022-09-03T10:07:30;26.50;66.50
12370;DHT22;6249;52.128;9.986;2022-09-03T10:10:52;26.80;63.10
12370;DHT22;6249;52.128;9.986;2022-09-03T10:18:01;27.40;59.80
12370;DHT22;6249;52.128;9.986;2022-09-03T10:21:34;27.50;59.60
12370;DHT22;6249;52.128;9.986;2022-09-03T10:24:58;27.50;58.80
12370;DHT22;6249;52.128;9.986;2022-09-03T10:28:23;27.90;57.70
12370;DHT22;6249;52.128;9.986;2022-09-03T10:39:12;28.20;54.50
12370;DHT22;6249;52.128;9.986;2022-09-03T10:42:34;28.50;54.70
12370;DHT22;6249;52.128;9.986;2022-09-03T10:46:08;28.90;54.50
12370;DHT22;6249;52.128;9.986;2022-09-03T10:56:21;30.10;50.40
12370;DHT22;6249;52.128;9.986;2022-09-03T11:03:45;30.70;49.70
12370;DHT22;6249;52.128;9.986;2022-09-03T11:07:11;31.00;48.00
12370;DHT22;6249;52.128;9.986;2022-09-03T11:10:41;31.40;46.30
12370;DHT22;6249;52.128;9.986;2022-09-03T11:14:09;31.70;45.50
12370;DHT22;6249;52.128;9.986;2022-09-03T11:17:48;31.90;44.60
12370;DHT22;6249;52.128;9.986;2022-09-03T11:21:12;32.00;44.20
12370;DHT22;6249;52.128;9.986;2022-09-03T11:24:34;32.20;43.70
12370;DHT22;6249;52.128;9.986;2022-09-03T11:35:36;32.20;42.40
12370;DHT22;6249;52.128;9.986;2022-09-03T11:38:57;33.00;42.20
12370;DHT22;6249;52.128;9.986;2022-09-03T11:45:46;34.00;39.20
12370;DHT22;6249;52.128;9.986;2022-09-03T11:49:22;34.20;38.00
12370;DHT22;6249;52.128;9.986;2022-09-03T11:52:45;34.20;38.50
12370;DHT22;6249;52.128;9.986;2022-09-03T11:59:28;33.90;38.60
12370;DHT22;6249;52.128;9.986;2022-09-03T12:03:00;34.40;37.70
12370;DHT22;6249;52.128;9.986;2022-09-03T12:06:54;35.00;36.40
12370;DHT22;6249;52.128;9.986;2022-09-03T12:10:36;35.60;36.00
12370;DHT22;6249;52.128;9.986;2022-09-03T12:21:37;35.80;34.70
12370;DHT22;6249;52.128;9.986;2022-09-03T12:25:12;36.20;33.20
12370;DHT22;6249;52.128;9.986;2022-09-03T12:28:40;36.40;32.70
12370;DHT22;6249;52.128;9.986;2022-09-03T12:32:07;36.40;33.00
12370;DHT22;6249;52.128;9.986;2022-09-03T12:35:28;36.60;32.20
12370;DHT22;6249;52.128;9.986;2022-09-03T12:38:49;36.40;32.90
12370;DHT22;6249;52.128;9.986;2022-09-03T12:42:17;36.20;32.10
12370;DHT22;6249;52.128;9.986;2022-09-03T12:45:47;36.50;32.20
12370;DHT22;6249;52.128;9.986;2022-09-03T12:49:13;36.30;32.10
12370;DHT22;6249;52.128;9.986;2022-09-03T12:56:03;37.10;30.80
12370;DHT22;6249;52.128;9.986;2022-09-03T12:59:26;36.90;31.10
12370;DHT22;6249;52.128;9.986;2022-09-03T13:07:05;36.80;31.00
12370;DHT22;6249;52.128;9.986;2022-09-03T13:10:29;36.90;30.50
12370;DHT22;6249;52.128;9.986;2022-09-03T13:14:13;36.60;30.00
12370;DHT22;6249;52.128;9.986;2022-09-03T13:21:41;37.70;30.50
12370;DHT22;6249;52.128;9.986;2022-09-03T13:25:12;38.20;30.20
12370;DHT22;6249;52.128;9.986;2022-09-03T13:43:44;38.10;28.70
12370;DHT22;6249;52.128;9.986;2022-09-03T13:51:46;37.90;28.60
12370;DHT22;6249;52.128;9.986;2022-09-03T13:54:51;37.90;28.90
12370;DHT22;6249;52.128;9.986;2022-09-03T14:20:25;38.60;27.40
12370;DHT22;6249;52.128;9.986;2022-09-03T14:27:26;38.00;28.50
12370;DHT22;6249;52.128;9.986;2022-09-03T14:38:28;38.90;27.30
12370;DHT22;6249;52.128;9.986;2022-09-03T14:42:03;39.00;27.50
12370;DHT22;6249;52.128;9.986;2022-09-03T14:49:50;39.10;27.20
12370;DHT22;6249;52.128;9.986;2022-09-03T15:00:15;39.30;26.70
12370;DHT22;6249;52.128;9.986;2022-09-03T15:07:33;39.10;27.30
12370;DHT22;6249;52.128;9.986;2022-09-03T15:11:01;38.70;26.50
12370;DHT22;6249;52.128;9.986;2022-09-03T15:14:35;37.90;27.60
12370;DHT22;6249;52.128;9.986;2022-09-03T15:18:28;37.70;27.50
12370;DHT22;6249;52.128;9.986;2022-09-03T15:39:19;38.30;27.30
12370;DHT22;6249;52.128;9.986;2022-09-03T15:42:41;38.40;27.00
12370;DHT22;6249;52.128;9.986;2022-09-03T15:46:20;37.80;27.10
12370;DHT22;6249;52.128;9.986;2022-09-03T15:50:00;37.70;27.50
12370;DHT22;6249;52.128;9.986;2022-09-03T15:53:53;37.40;27.50
12370;DHT22;6249;52.128;9.986;2022-09-03T15:57:28;37.60;27.70
12370;DHT22;6249;52.128;9.986;2022-09-03T16:08:24;38.20;27.30
12370;DHT22;6249;52.128;9.986;2022-09-03T16:15:43;37.30;27.10
12370;DHT22;6249;52.128;9.986;2022-09-03T16:19:16;37.40;27.60
12370;DHT22;6249;52.128;9.986;2022-09-03T16:23:04;37.50;27.40
12370;DHT22;6249;52.128;9.986;2022-09-03T16:26:41;37.30;27.60
12370;DHT22;6249;52.128;9.986;2022-09-03T16:41:10;34.60;29.40
12370;DHT22;6249;52.128;9.986;2022-09-03T16:44:53;33.90;29.70
12370;DHT22;6249;52.128;9.986;2022-09-03T16:48:39;32.70;30.40
12370;DHT22;6249;52.128;9.986;2022-09-03T16:52:15;31.40;31.70
12370;DHT22;6249;52.128;9.986;2022-09-03T17:08:08;28.40;36.10
12370;DHT22;6249;52.128;9.986;2022-09-03T17:11:24;28.10;36.40
12370;DHT22;6249;52.128;9.986;2022-09-03T17:22:27;27.00;36.80
12370;DHT22;6249;52.128;9.986;2022-09-03T17:30:27;26.50;38.10
12370;DHT22;6249;52.128;9.986;2022-09-03T17:42:04;26.10;38.90
12370;DHT22;6249;52.128;9.986;2022-09-03T17:45:50;26.00;39.90
12370;DHT22;6249;52.128;9.986;2022-09-03T17:49:23;25.80;39.80
12370;DHT22;6249;52.128;9.986;2022-09-03T17:52:55;25.50;40.30
12370;DHT22;6249;52.128;9.986;2022-09-03T17:56:45;25.40;41.50
12370;DHT22;6249;52.128;9.986;2022-09-03T18:00:09;25.30;41.60
12370;DHT22;6249;52.128;9.986;2022-09-03T18:07:13;24.90;41.40
12370;DHT22;6249;52.128;9.986;2022-09-03T18:14:30;24.70;41.80
12370;DHT22;6249;52.128;9.986;2022-09-03T18:21:24;24.40;42.10
12370;DHT22;6249;52.128;9.986;2022-09-03T18:25:07;24.30;42.90
12370;DHT22;6249;52.128;9.986;2022-09-03T18:32:33;23.70;43.80
12370;DHT22;6249;52.128;9.986;2022-09-03T18:36:15;23.50;44.50
12370;DHT22;6249;52.128;9.986;2022-09-03T18:39:57;23.30;44.70
12370;DHT22;6249;52.128;9.986;2022-09-03T18:43:56;23.20;45.20
12370;DHT22;6249;52.128;9.986;2022-09-03T18:55:33;23.00;45.90
12370;DHT22;6249;52.128;9.986;2022-09-03T19:03:34;22.70;47.90
12370;DHT22;6249;52.128;9.986;2022-09-03T19:22:41;22.20;51.90
12370;DHT22;6249;52.128;9.986;2022-09-03T19:26:50;22.20;52.60
12370;DHT22;6249;52.128;9.986;2022-09-03T19:30:51;22.00;53.20
12370;DHT22;6249;52.128;9.986;2022-09-03T19:38:54;21.80;54.40
12370;DHT22;6249;52.128;9.986;2022-09-03T19:42:55;21.60;55.30
12370;DHT22;6249;52.128;9.986;2022-09-03T19:50:28;21.70;55.90
12370;DHT22;6249;52.128;9.986;2022-09-03T19:54:10;21.60;56.10
12370;DHT22;6249;52.128;9.986;2022-09-03T19:57:54;21.60;57.10
12370;DHT22;6249;52.128;9.986;2022-09-03T20:01:36;21.50;57.10
12370;DHT22;6249;52.128;9.986;2022-09-03T20:05:21;21.40;57.30
12370;DHT22;6249;52.128;9.986;2022-09-03T20:09:07;21.30;58.30
12370;DHT22;6249;52.128;9.986;2022-09-03T20:16:51;21.00;59.50
12370;DHT22;6249;52.128;9.986;2022-09-03T20:20:37;21.00;59.70
12370;DHT22;6249;52.128;9.986;2022-09-03T20:50:38;20.10;65.70
12370;DHT22;6249;52.128;9.986;2022-09-03T21:01:06;19.90;67.10
12370;DHT22;6249;52.128;9.986;2022-09-03T21:29:46;19.10;73.30
12370;DHT22;6249;52.128;9.986;2022-09-03T21:33:32;19.10;74.80
12370;DHT22;6249;52.128;9.986;2022-09-03T21:36:55;18.90;75.30
12370;DHT22;6249;52.128;9.986;2022-09-03T21:40:18;18.70;76.90
12370;DHT22;6249;52.128;9.986;2022-09-03T21:47:26;18.70;77.90
12370;DHT22;6249;52.128;9.986;2022-09-03T21:50:54;18.70;79.00
12370;DHT22;6249;52.128;9.986;2022-09-03T21:54:26;18.70;79.30
12370;DHT22;6249;52.128;9.986;2022-09-03T21:58:10;18.70;80.10
12370;DHT22;6249;52.128;9.986;2022-09-03T22:01:51;18.70;81.00
12370;DHT22;6249;52.128;9.986;2022-09-03T22:05:16;18.70;81.40
12370;DHT22;6249;52.128;9.986;2022-09-03T22:08:55;18.70;82.20
12370;DHT22;6249;52.128;9.986;2022-09-03T22:12:28;18.70;83.10
12370;DHT22;6249;52.128;9.986;2022-09-03T22:15:56;18.60;84.10
12370;DHT22;6249;52.128;9.986;2022-09-03T22:19:19;18.60;84.70
12370;DHT22;6249;52.128;9.986;2022-09-03T22:22:51;18.60;85.90
12370;DHT22;6249;52.128;9.986;2022-09-03T22:26:46;18.60;86.20
12370;DHT22;6249;52.128;9.986;2022-09-03T22:30:09;18.70;86.70
12370;DHT22;6249;52.128;9.986;2022-09-03T22:33:44;18.70;86.20
12370;DHT22;6249;52.128;9.986;2022-09-03T22:37:35;18.80;85.90
12370;DHT22;6249;52.128;9.986;2022-09-03T22:55:50;19.00;87.10
12370;DHT22;6249;52.128;9.986;2022-09-03T22:59:29;19.00;87.20
12370;DHT22;6249;52.128;9.986;2022-09-03T23:03:01;18.90;86.90
12370;DHT22;6249;52.128;9.986;2022-09-03T23:06:33;18.90;87.60
12370;DHT22;6249;52.128;9.986;2022-09-03T23:10:09;18.70;87.60
12370;DHT22;6249;52.128;9.986;2022-09-03T23:13:49;18.60;89.00
12370;DHT22;6249;52.128;9.986;2022-09-03T23:17:15;18.50;89.60
12370;DHT22;6249;52.128;9.986;2022-09-03T23:20:45;18.40;90.10
12370;DHT22;6249;52.128;9.986;2022-09-03T23:24:09;18.30;90.50
12370;DHT22;6249;52.128;9.986;2022-09-03T23:27:38;18.20;90.30
12370;DHT22;6249;52.128;9.986;2022-09-03T23:31:22;18.00;91.00
12370;DHT22;6249;52.128;9.986;2022-09-03T23:34:43;17.80;91.80
12370;DHT22;6249;52.128;9.986;2022-09-03T23:42:41;17.60;93.30
12370;DHT22;6249;52.128;9.986;2022-09-03T23:49:47;17.40;94.40
12370;DHT22;6249;52.128;9.986;2022-09-03T23:57:38;17.30;95.70
